SVA1371 OEJN-OEBA
Flight info
| Callsign | SVA1371 |
|---|---|
| Flight time | 0h 44m |
| Altitude | 27000 |
| Route | EGPOB V31 BHA |
| Aircraft | A320/M-SDE3FGHIRWY/LB1 |
Departure
| Time | 2026-05-08 00:32 |
|---|---|
| Airport | King Abdulaziz International Airport (OEJN) |
Arrival
| Time | 2026-05-08 01:16 |
|---|---|
| Airport | King Saud Bin Abdulaziz (Al Baha) Airport (OEBA) |
| Time | Latitude | Longitude | Altitude | Speed | Heading |
|---|---|---|---|---|---|
| 2026-05-08 00:23 | 21.66617 | 39.17057 | 33 ft | 0 kts | 65° |
| 2026-05-08 00:26 | 21.66612 | 39.17045 | 33 ft | 4 kts | 66° |
| 2026-05-08 00:26 | 21.66602 | 39.17018 | 33 ft | 4 kts | 71° |
| 2026-05-08 00:26 | 21.66595 | 39.16990 | 32 ft | 4 kts | 89° |
| 2026-05-08 00:27 | 21.66600 | 39.16967 | 31 ft | 3 kts | 156° |
| 2026-05-08 00:27 | 21.66603 | 39.16965 | 32 ft | 1 kts | 162° |
| 2026-05-08 00:29 | 21.66584 | 39.16972 | 33 ft | 6 kts | 162° |
| 2026-05-08 00:29 | 21.66547 | 39.16985 | 33 ft | 7 kts | 162° |
| 2026-05-08 00:29 | 21.66499 | 39.17002 | 33 ft | 8 kts | 163° |
| 2026-05-08 00:29 | 21.66425 | 39.16990 | 33 ft | 11 kts | 216° |
| 2026-05-08 00:30 | 21.66395 | 39.16920 | 32 ft | 12 kts | 251° |
| 2026-05-08 00:30 | 21.66360 | 39.16810 | 33 ft | 17 kts | 251° |
| 2026-05-08 00:30 | 21.66318 | 39.16686 | 32 ft | 18 kts | 249° |
| 2026-05-08 00:30 | 21.66287 | 39.16598 | 32 ft | 11 kts | 249° |
| 2026-05-08 00:31 | 21.66260 | 39.16523 | 32 ft | 10 kts | 249° |
| 2026-05-08 00:31 | 21.66259 | 39.16455 | 33 ft | 9 kts | 298° |
| 2026-05-08 00:31 | 21.66311 | 39.16411 | 34 ft | 11 kts | 337° |
| 2026-05-08 00:31 | 21.66451 | 39.16356 | 35 ft | 45 kts | 340° |
| 2026-05-08 00:32 | 21.66965 | 39.16152 | 35 ft | 110 kts | 340° |
| 2026-05-08 00:32 | 21.67853 | 39.15807 | 34 ft | 160 kts | 340° |
| 2026-05-08 00:32 | 21.69004 | 39.15354 | 302 ft | 181 kts | 339° |
| 2026-05-08 00:32 | 21.70159 | 39.14890 | 971 ft | 176 kts | 341° |
| 2026-05-08 00:33 | 21.71309 | 39.14425 | 1605 ft | 179 kts | 341° |
| 2026-05-08 00:33 | 21.72496 | 39.13944 | 2108 ft | 185 kts | 341° |
| 2026-05-08 00:33 | 21.73737 | 39.13447 | 2549 ft | 194 kts | 341° |
| 2026-05-08 00:33 | 21.75030 | 39.12941 | 2983 ft | 203 kts | 341° |
| 2026-05-08 00:34 | 21.76415 | 39.12375 | 3245 ft | 223 kts | 340° |
| 2026-05-08 00:34 | 21.77888 | 39.11775 | 3782 ft | 229 kts | 340° |
| 2026-05-08 00:34 | 21.79428 | 39.11176 | 4282 ft | 240 kts | 340° |
| 2026-05-08 00:34 | 21.81020 | 39.10565 | 4937 ft | 246 kts | 340° |
| 2026-05-08 00:35 | 21.82646 | 39.09941 | 5626 ft | 251 kts | 340° |
| 2026-05-08 00:35 | 21.84312 | 39.09298 | 6265 ft | 258 kts | 339° |
| 2026-05-08 00:35 | 21.86022 | 39.08632 | 6897 ft | 264 kts | 339° |
| 2026-05-08 00:35 | 21.87757 | 39.07950 | 7593 ft | 268 kts | 339° |
| 2026-05-08 00:36 | 21.89531 | 39.07250 | 8011 ft | 277 kts | 339° |
| 2026-05-08 00:36 | 21.91341 | 39.06467 | 8666 ft | 283 kts | 336° |
| 2026-05-08 00:36 | 21.93026 | 39.05365 | 9365 ft | 286 kts | 315° |
| 2026-05-08 00:36 | 21.94210 | 39.03646 | 9837 ft | 289 kts | 292° |
| 2026-05-08 00:37 | 21.94624 | 39.01534 | 9968 ft | 284 kts | 266° |
| 2026-05-08 00:37 | 21.94187 | 38.99487 | 9993 ft | 281 kts | 243° |
| 2026-05-08 00:37 | 21.93064 | 38.97815 | 10000 ft | 280 kts | 223° |
| 2026-05-08 00:38 | 21.90205 | 38.94873 | 10116 ft | 291 kts | 223° |
| 2026-05-08 00:38 | 21.88739 | 38.93358 | 10781 ft | 294 kts | 223° |
| 2026-05-08 00:38 | 21.87261 | 38.91831 | 11550 ft | 295 kts | 223° |
| 2026-05-08 00:38 | 21.85750 | 38.90269 | 11873 ft | 311 kts | 223° |
| 2026-05-08 00:39 | 21.84126 | 38.88594 | 11975 ft | 336 kts | 223° |
| 2026-05-08 00:39 | 21.82375 | 38.86790 | 11998 ft | 359 kts | 223° |
| 2026-05-08 00:39 | 21.80439 | 38.85044 | 11994 ft | 368 kts | 211° |
| 2026-05-08 00:39 | 21.78075 | 38.83997 | 11998 ft | 371 kts | 193° |
| 2026-05-08 00:40 | 21.75501 | 38.83817 | 11997 ft | 373 kts | 175° |
| 2026-05-08 00:40 | 21.72988 | 38.84536 | 12012 ft | 377 kts | 160° |
| 2026-05-08 00:40 | 21.70535 | 38.85603 | 12590 ft | 381 kts | 160° |
| 2026-05-08 00:40 | 21.68083 | 38.86677 | 13273 ft | 383 kts | 160° |
| 2026-05-08 00:41 | 21.65607 | 38.87761 | 13896 ft | 386 kts | 160° |
| 2026-05-08 00:41 | 21.63107 | 38.88856 | 14465 ft | 389 kts | 160° |
| 2026-05-08 00:41 | 21.60593 | 38.89957 | 15023 ft | 392 kts | 160° |
| 2026-05-08 00:41 | 21.58059 | 38.91062 | 15574 ft | 395 kts | 160° |
| 2026-05-08 00:42 | 21.55503 | 38.92173 | 16116 ft | 398 kts | 160° |
| 2026-05-08 00:42 | 21.52941 | 38.93357 | 16667 ft | 404 kts | 154° |
| 2026-05-08 00:42 | 21.50673 | 38.95167 | 17170 ft | 414 kts | 137° |
| 2026-05-08 00:42 | 21.48855 | 38.97601 | 17682 ft | 420 kts | 130° |
| 2026-05-08 00:43 | 21.47099 | 39.00130 | 18176 ft | 424 kts | 129° |
| 2026-05-08 00:43 | 21.45341 | 39.02681 | 18587 ft | 427 kts | 129° |
| 2026-05-08 00:43 | 21.43565 | 39.05262 | 18977 ft | 431 kts | 129° |
| 2026-05-08 00:43 | 21.41775 | 39.07859 | 19353 ft | 436 kts | 129° |
| 2026-05-08 00:44 | 21.39958 | 39.10486 | 19729 ft | 440 kts | 129° |
| 2026-05-08 00:44 | 21.38121 | 39.13136 | 20095 ft | 444 kts | 129° |
| 2026-05-08 00:44 | 21.36271 | 39.15802 | 20457 ft | 448 kts | 129° |
| 2026-05-08 00:44 | 21.34401 | 39.18494 | 20818 ft | 452 kts | 129° |
| 2026-05-08 00:45 | 21.32495 | 39.21239 | 21168 ft | 456 kts | 129° |
| 2026-05-08 00:45 | 21.30595 | 39.23974 | 21514 ft | 460 kts | 129° |
| 2026-05-08 00:45 | 21.28675 | 39.26732 | 21848 ft | 463 kts | 129° |
| 2026-05-08 00:45 | 21.26741 | 39.29513 | 22182 ft | 467 kts | 129° |
| 2026-05-08 00:46 | 21.24787 | 39.32320 | 22505 ft | 471 kts | 129° |
| 2026-05-08 00:46 | 21.22826 | 39.35141 | 22825 ft | 474 kts | 129° |
| 2026-05-08 00:46 | 21.20844 | 39.37986 | 23123 ft | 478 kts | 129° |
| 2026-05-08 00:46 | 21.18854 | 39.40837 | 23418 ft | 481 kts | 129° |
| 2026-05-08 00:47 | 21.16839 | 39.43721 | 23675 ft | 484 kts | 129° |
| 2026-05-08 00:47 | 21.14820 | 39.46612 | 23971 ft | 485 kts | 130° |
| 2026-05-08 00:47 | 21.12795 | 39.49512 | 24269 ft | 487 kts | 130° |
| 2026-05-08 00:47 | 21.10765 | 39.52416 | 24560 ft | 488 kts | 130° |
| 2026-05-08 00:48 | 21.08726 | 39.55335 | 24852 ft | 489 kts | 130° |
| 2026-05-08 00:48 | 21.06692 | 39.58248 | 25141 ft | 491 kts | 130° |
| 2026-05-08 00:48 | 21.04645 | 39.61177 | 25413 ft | 492 kts | 130° |
| 2026-05-08 00:48 | 21.02592 | 39.64110 | 25686 ft | 493 kts | 130° |
| 2026-05-08 00:49 | 21.00532 | 39.67049 | 25956 ft | 494 kts | 130° |
| 2026-05-08 00:49 | 20.98466 | 39.69996 | 26224 ft | 495 kts | 130° |
| 2026-05-08 00:49 | 20.96402 | 39.72938 | 26477 ft | 496 kts | 131° |
| 2026-05-08 00:49 | 20.94330 | 39.75894 | 26728 ft | 497 kts | 130° |
| 2026-05-08 00:50 | 20.92492 | 39.79041 | 26844 ft | 501 kts | 121° |
| 2026-05-08 00:50 | 20.91102 | 39.82484 | 26877 ft | 505 kts | 112° |
| 2026-05-08 00:50 | 20.89930 | 39.86019 | 26883 ft | 505 kts | 112° |
| 2026-05-08 00:50 | 20.88749 | 39.89563 | 26887 ft | 505 kts | 113° |
| 2026-05-08 00:51 | 20.87565 | 39.93094 | 26887 ft | 505 kts | 113° |
| 2026-05-08 00:51 | 20.86372 | 39.96630 | 26893 ft | 505 kts | 113° |
| 2026-05-08 00:51 | 20.85163 | 40.00200 | 26899 ft | 505 kts | 113° |
| 2026-05-08 00:51 | 20.83976 | 40.03689 | 26898 ft | 505 kts | 113° |
| 2026-05-08 00:52 | 20.82778 | 40.07213 | 26907 ft | 505 kts | 113° |
| 2026-05-08 00:52 | 20.81580 | 40.10746 | 26912 ft | 505 kts | 113° |
| 2026-05-08 00:52 | 20.80775 | 40.13124 | 26909 ft | 505 kts | 113° |
| 2026-05-08 00:52 | 20.79581 | 40.16652 | 26908 ft | 505 kts | 113° |
| 2026-05-08 00:53 | 20.78391 | 40.20171 | 26911 ft | 505 kts | 113° |
| 2026-05-08 00:53 | 20.77196 | 40.23707 | 26920 ft | 505 kts | 113° |
| 2026-05-08 00:53 | 20.76005 | 40.27224 | 26924 ft | 504 kts | 113° |
| 2026-05-08 00:53 | 20.74806 | 40.30750 | 26929 ft | 504 kts | 113° |
| 2026-05-08 00:54 | 20.73607 | 40.34264 | 26927 ft | 504 kts | 113° |
| 2026-05-08 00:54 | 20.72401 | 40.37784 | 26934 ft | 504 kts | 113° |
| 2026-05-08 00:54 | 20.71199 | 40.41291 | 26935 ft | 504 kts | 113° |
| 2026-05-08 00:54 | 20.69995 | 40.44815 | 26937 ft | 504 kts | 113° |
| 2026-05-08 00:55 | 20.68798 | 40.48327 | 26944 ft | 504 kts | 113° |
| 2026-05-08 00:55 | 20.67604 | 40.51842 | 26950 ft | 503 kts | 113° |
| 2026-05-08 00:55 | 20.66410 | 40.55353 | 26957 ft | 503 kts | 113° |
| 2026-05-08 00:55 | 20.65211 | 40.58869 | 26961 ft | 503 kts | 113° |
| 2026-05-08 00:56 | 20.64005 | 40.62402 | 26966 ft | 503 kts | 113° |
| 2026-05-08 00:56 | 20.62808 | 40.65901 | 26978 ft | 502 kts | 113° |
| 2026-05-08 00:56 | 20.61607 | 40.69406 | 26985 ft | 502 kts | 113° |
| 2026-05-08 00:56 | 20.60407 | 40.72903 | 26992 ft | 500 kts | 113° |
| 2026-05-08 00:57 | 20.59237 | 40.76321 | 26999 ft | 480 kts | 113° |
| 2026-05-08 00:57 | 20.58109 | 40.79618 | 27005 ft | 470 kts | 114° |
| 2026-05-08 00:57 | 20.56986 | 40.82885 | 27012 ft | 467 kts | 114° |
| 2026-05-08 00:57 | 20.55864 | 40.86130 | 27014 ft | 466 kts | 114° |
| 2026-05-08 00:58 | 20.54740 | 40.89374 | 27022 ft | 466 kts | 114° |
| 2026-05-08 00:58 | 20.53621 | 40.92612 | 27029 ft | 466 kts | 114° |
| 2026-05-08 00:58 | 20.52503 | 40.95853 | 27037 ft | 466 kts | 113° |
| 2026-05-08 00:58 | 20.51384 | 40.99100 | 27041 ft | 466 kts | 114° |
| 2026-05-08 00:59 | 20.50265 | 41.02343 | 27048 ft | 466 kts | 114° |
| 2026-05-08 00:59 | 20.49145 | 41.05583 | 27050 ft | 465 kts | 114° |
| 2026-05-08 00:59 | 20.48031 | 41.08811 | 27049 ft | 464 kts | 113° |
| 2026-05-08 00:59 | 20.46917 | 41.12049 | 27053 ft | 464 kts | 113° |
| 2026-05-08 01:00 | 20.45806 | 41.15271 | 27051 ft | 464 kts | 114° |
| 2026-05-08 01:00 | 20.44688 | 41.18504 | 27059 ft | 464 kts | 114° |
| 2026-05-08 01:00 | 20.43570 | 41.21728 | 27073 ft | 460 kts | 114° |
| 2026-05-08 01:00 | 20.43158 | 41.22916 | 27090 ft | 458 kts | 114° |
| 2026-05-08 01:01 | 20.42057 | 41.26101 | 26757 ft | 449 kts | 114° |
| 2026-05-08 01:01 | 20.40982 | 41.29213 | 26256 ft | 445 kts | 114° |
| 2026-05-08 01:01 | 20.39915 | 41.32294 | 25725 ft | 442 kts | 113° |
| 2026-05-08 01:01 | 20.38854 | 41.35353 | 25246 ft | 439 kts | 113° |
| 2026-05-08 01:02 | 20.37807 | 41.38357 | 24762 ft | 436 kts | 113° |
| 2026-05-08 01:02 | 20.36742 | 41.41407 | 24253 ft | 433 kts | 112° |
| 2026-05-08 01:02 | 20.35695 | 41.44410 | 23803 ft | 430 kts | 112° |
| 2026-05-08 01:02 | 20.34800 | 41.47438 | 23312 ft | 429 kts | 101° |
| 2026-05-08 01:03 | 20.34694 | 41.50591 | 22850 ft | 426 kts | 82° |
| 2026-05-08 01:03 | 20.35489 | 41.53598 | 22377 ft | 421 kts | 65° |
| 2026-05-08 01:03 | 20.36764 | 41.56401 | 21883 ft | 419 kts | 63° |
| 2026-05-08 01:03 | 20.38080 | 41.59160 | 21421 ft | 415 kts | 62° |
| 2026-05-08 01:04 | 20.39394 | 41.61884 | 20981 ft | 412 kts | 62° |
| 2026-05-08 01:04 | 20.40705 | 41.64583 | 20545 ft | 409 kts | 62° |
| 2026-05-08 01:04 | 20.42017 | 41.67261 | 20116 ft | 405 kts | 62° |
| 2026-05-08 01:04 | 20.43325 | 41.69907 | 19685 ft | 402 kts | 62° |
| 2026-05-08 01:05 | 20.44635 | 41.72534 | 19267 ft | 399 kts | 62° |
| 2026-05-08 01:05 | 20.45940 | 41.75133 | 18817 ft | 396 kts | 62° |
| 2026-05-08 01:05 | 20.47242 | 41.77704 | 18373 ft | 393 kts | 62° |
| 2026-05-08 01:05 | 20.48550 | 41.80263 | 17837 ft | 390 kts | 62° |
| 2026-05-08 01:06 | 20.49851 | 41.82785 | 17324 ft | 386 kts | 62° |
| 2026-05-08 01:06 | 20.51142 | 41.85270 | 16817 ft | 378 kts | 62° |
| 2026-05-08 01:06 | 20.52403 | 41.87675 | 16321 ft | 365 kts | 62° |
| 2026-05-08 01:06 | 20.53630 | 41.89991 | 15829 ft | 353 kts | 62° |
| 2026-05-08 01:07 | 20.54830 | 41.92234 | 15343 ft | 342 kts | 62° |
| 2026-05-08 01:07 | 20.56001 | 41.94405 | 14880 ft | 333 kts | 62° |
| 2026-05-08 01:07 | 20.56981 | 41.96578 | 14407 ft | 319 kts | 78° |
| 2026-05-08 01:07 | 20.57133 | 41.98867 | 13950 ft | 303 kts | 103° |
| 2026-05-08 01:08 | 20.56400 | 42.00904 | 13451 ft | 290 kts | 127° |
| 2026-05-08 01:08 | 20.54960 | 42.02326 | 12952 ft | 280 kts | 153° |
| 2026-05-08 01:08 | 20.53114 | 42.02874 | 12456 ft | 275 kts | 179° |
| 2026-05-08 01:08 | 20.51254 | 42.02440 | 11965 ft | 273 kts | 205° |
| 2026-05-08 01:09 | 20.49651 | 42.01409 | 11519 ft | 274 kts | 212° |
| 2026-05-08 01:09 | 20.48060 | 42.00264 | 11287 ft | 270 kts | 212° |
| 2026-05-08 01:09 | 20.46519 | 41.99140 | 11006 ft | 268 kts | 212° |
| 2026-05-08 01:09 | 20.44984 | 41.98023 | 10750 ft | 263 kts | 212° |
| 2026-05-08 01:10 | 20.43482 | 41.96933 | 10453 ft | 260 kts | 212° |
| 2026-05-08 01:10 | 20.41997 | 41.95860 | 10136 ft | 257 kts | 212° |
| 2026-05-08 01:10 | 20.40556 | 41.94753 | 9801 ft | 255 kts | 222° |
| 2026-05-08 01:10 | 20.39525 | 41.93256 | 9459 ft | 255 kts | 245° |
| 2026-05-08 01:11 | 20.38914 | 41.91469 | 9124 ft | 253 kts | 250° |
| 2026-05-08 01:11 | 20.38347 | 41.89706 | 8787 ft | 251 kts | 250° |
| 2026-05-08 01:11 | 20.37805 | 41.88033 | 8476 ft | 249 kts | 250° |
| 2026-05-08 01:11 | 20.37221 | 41.86239 | 8182 ft | 245 kts | 250° |
| 2026-05-08 01:12 | 20.36673 | 41.84554 | 8005 ft | 236 kts | 250° |
| 2026-05-08 01:12 | 20.36150 | 41.82949 | 7987 ft | 220 kts | 250° |
| 2026-05-08 01:12 | 20.35658 | 41.81437 | 8046 ft | 214 kts | 250° |
| 2026-05-08 01:12 | 20.35176 | 41.79958 | 7864 ft | 210 kts | 250° |
| 2026-05-08 01:13 | 20.34695 | 41.78482 | 7527 ft | 211 kts | 250° |
| 2026-05-08 01:13 | 20.34219 | 41.77023 | 7318 ft | 205 kts | 250° |
| 2026-05-08 01:13 | 20.33777 | 41.75667 | 7283 ft | 181 kts | 250° |
| 2026-05-08 01:13 | 20.33378 | 41.74444 | 7191 ft | 171 kts | 250° |
| 2026-05-08 01:14 | 20.32993 | 41.73262 | 6995 ft | 167 kts | 250° |
| 2026-05-08 01:14 | 20.32614 | 41.72102 | 6797 ft | 165 kts | 250° |
| 2026-05-08 01:14 | 20.32240 | 41.70958 | 6614 ft | 164 kts | 251° |
| 2026-05-08 01:14 | 20.31867 | 41.69814 | 6402 ft | 163 kts | 251° |
| 2026-05-08 01:15 | 20.31495 | 41.68675 | 6183 ft | 162 kts | 251° |
| 2026-05-08 01:15 | 20.31121 | 41.67549 | 5958 ft | 161 kts | 251° |
| 2026-05-08 01:15 | 20.30744 | 41.66427 | 5717 ft | 160 kts | 252° |
| 2026-05-08 01:15 | 20.30386 | 41.65309 | 5542 ft | 159 kts | 253° |
| 2026-05-08 01:16 | 20.30033 | 41.64208 | 5444 ft | 148 kts | 252° |
| 2026-05-08 01:16 | 20.29749 | 41.63329 | 5435 ft | 100 kts | 250° |
| 2026-05-08 01:16 | 20.29576 | 41.62802 | 5436 ft | 51 kts | 251° |
| 2026-05-08 01:16 | 20.29508 | 41.62595 | 5437 ft | 20 kts | 250° |
| 2026-05-08 01:17 | 20.29461 | 41.62451 | 5436 ft | 21 kts | 251° |
| 2026-05-08 01:17 | 20.29408 | 41.62300 | 5437 ft | 22 kts | 250° |
| 2026-05-08 01:17 | 20.29376 | 41.62201 | 5437 ft | 10 kts | 251° |
| 2026-05-08 01:17 | 20.29352 | 41.62145 | 5437 ft | 7 kts | 234° |
| 2026-05-08 01:18 | 20.29321 | 41.62115 | 5438 ft | 7 kts | 213° |
| 2026-05-08 01:18 | 20.29252 | 41.62129 | 5438 ft | 11 kts | 132° |
| 2026-05-08 01:18 | 20.29223 | 41.62191 | 5437 ft | 8 kts | 113° |
| 2026-05-08 01:18 | 20.29221 | 41.62258 | 5436 ft | 14 kts | 74° |
| 2026-05-08 01:19 | 20.29254 | 41.62374 | 5438 ft | 17 kts | 71° |
| 2026-05-08 01:19 | 20.29299 | 41.62496 | 5438 ft | 18 kts | 68° |
| 2026-05-08 01:19 | 20.29346 | 41.62626 | 5438 ft | 19 kts | 71° |
| 2026-05-08 01:19 | 20.29390 | 41.62766 | 5436 ft | 20 kts | 71° |
| 2026-05-08 01:20 | 20.29436 | 41.62912 | 5436 ft | 21 kts | 71° |
| 2026-05-08 01:20 | 20.29485 | 41.63061 | 5438 ft | 22 kts | 71° |
| 2026-05-08 01:20 | 20.29538 | 41.63217 | 5437 ft | 23 kts | 70° |
| 2026-05-08 01:20 | 20.29592 | 41.63375 | 5437 ft | 24 kts | 71° |
| 2026-05-08 01:21 | 20.29646 | 41.63546 | 5438 ft | 24 kts | 71° |
| 2026-05-08 01:21 | 20.29700 | 41.63719 | 5439 ft | 19 kts | 71° |
| 2026-05-08 01:21 | 20.29732 | 41.63818 | 5438 ft | 13 kts | 70° |
| 2026-05-08 01:21 | 20.29730 | 41.63889 | 5438 ft | 10 kts | 130° |
| 2026-05-08 01:22 | 20.29667 | 41.63923 | 5436 ft | 12 kts | 161° |
| 2026-05-08 01:22 | 20.29593 | 41.63951 | 5439 ft | 10 kts | 150° |
| 2026-05-08 01:22 | 20.29591 | 41.64008 | 5437 ft | 7 kts | 83° |
| 2026-05-08 01:22 | 20.29590 | 41.64052 | 5435 ft | 5 kts | 112° |
| 2026-05-08 01:23 | 20.29568 | 41.64070 | 5439 ft | 4 kts | 151° |
| 2026-05-08 01:23 | 20.29550 | 41.64083 | 5439 ft | 3 kts | 142° |
| 2026-05-08 01:23 | 20.29540 | 41.64095 | 5439 ft | 2 kts | 127° |
| 2026-05-08 01:23 | 20.29535 | 41.64103 | 5438 ft | 1 kts | 122° |
| 2026-05-08 01:24 | 20.29535 | 41.64104 | 5438 ft | 0 kts | 122° |